Wetterdaten: Mittwoch, 26.08.2015
Datum Zeit Temp. A. Temp. A. min Temp. A. max Feuchte A. Bod.Feucht 4 Luftdruck Regen Wind Richtung Richtung Sonnenschein ET Solar Taupunkt Windchill Windben Empfang
26.08.2015 00:00 14,3 C 14,3 C 14,3 C 71 % 0 cb 1018,7 hPa 0,0 l/m 1,6 km/h (1 Bft) NW 315 0 min 0,025 mm 0 W/m 9,1 C 14,3 C 6,4 km/h (2 Bft) 100,00 %
26.08.2015 00:10 14,3 C 14,2 C 14,3 C 71 % 0 cb 1018,8 hPa 0,0 l/m 1,6 km/h (1 Bft) N-NW 337 0 min 0,000 mm 0 W/m 9,1 C 14,3 C 6,4 km/h (2 Bft) 99,12 %
26.08.2015 00:20 14,2 C 14,2 C 14,3 C 72 % 0 cb 1018,7 hPa 0,0 l/m 1,6 km/h (1 Bft) W-NW 292 0 min 0,000 mm 0 W/m 9,2 C 14,2 C 4,8 km/h (1 Bft) 100,00 %
26.08.2015 00:30 14,2 C 14,2 C 14,3 C 72 % 0 cb 1018,8 hPa 0,0 l/m 0,0 km/h (0 Bft) W-NW 292 0 min 0,000 mm 0 W/m 9,2 C 14,2 C 4,8 km/h (1 Bft) 100,00 %
26.08.2015 00:40 14,3 C 14,2 C 14,3 C 71 % 0 cb 1018,8 hPa 0,0 l/m 0,0 km/h (0 Bft) N 0 0 min 0,000 mm 0 W/m 9,1 C 14,3 C 0,0 km/h (0 Bft) 100,00 %
26.08.2015 00:50 14,4 C 14,3 C 14,4 C 71 % 0 cb 1018,7 hPa 0,0 l/m 0,0 km/h (0 Bft) W 270 0 min 0,000 mm 0 W/m 9,2 C 14,4 C 3,2 km/h (1 Bft) 100,00 %
26.08.2015 01:00 14,6 C 14,4 C 14,6 C 70 % 0 cb 1018,7 hPa 0,0 l/m 1,6 km/h (1 Bft) W-SW 247 0 min 0,025 mm 0 W/m 9,2 C 14,6 C 3,2 km/h (1 Bft) 100,00 %
26.08.2015 01:10 14,7 C 14,6 C 14,7 C 71 % 0 cb 1018,7 hPa 0,0 l/m 0,0 km/h (0 Bft) W-SW 247 0 min 0,000 mm 0 W/m 9,5 C 14,7 C 4,8 km/h (1 Bft) 100,00 %
26.08.2015 01:20 14,5 C 14,5 C 14,7 C 72 % 0 cb 1018,7 hPa 0,0 l/m 0,0 km/h (0 Bft) W-SW 247 0 min 0,000 mm 0 W/m 9,5 C 14,5 C 1,6 km/h (1 Bft) 100,00 %
26.08.2015 01:30 14,3 C 14,3 C 14,5 C 73 % 0 cb 1018,6 hPa 0,0 l/m 0,0 km/h (0 Bft) W-SW 247 0 min 0,000 mm 0 W/m 9,5 C 14,3 C 1,6 km/h (1 Bft) 99,56 %
26.08.2015 01:40 14,2 C 14,2 C 14,3 C 73 % 0 cb 1018,6 hPa 0,0 l/m 0,0 km/h (0 Bft) W-SW 247 0 min 0,000 mm 0 W/m 9,4 C 14,2 C 3,2 km/h (1 Bft) 100,00 %
26.08.2015 01:50 14,1 C 14,1 C 14,2 C 73 % 0 cb 1018,5 hPa 0,0 l/m 1,6 km/h (1 Bft) W-SW 247 0 min 0,000 mm 0 W/m 9,3 C 14,1 C 4,8 km/h (1 Bft) 100,00 %
26.08.2015 02:00 14,1 C 14,1 C 14,1 C 73 % 0 cb 1018,5 hPa 0,0 l/m 1,6 km/h (1 Bft) W-SW 247 0 min 0,025 mm 0 W/m 9,3 C 14,1 C 3,2 km/h (1 Bft) 100,00 %
26.08.2015 02:10 13,9 C 13,9 C 14,1 C 74 % 0 cb 1018,4 hPa 0,0 l/m 1,6 km/h (1 Bft) W-SW 247 0 min 0,000 mm 0 W/m 9,3 C 13,9 C 3,2 km/h (1 Bft) 99,56 %
26.08.2015 02:20 13,7 C 13,7 C 13,9 C 74 % 0 cb 1018,3 hPa 0,0 l/m 1,6 km/h (1 Bft) W-SW 247 0 min 0,000 mm 0 W/m 9,2 C 13,7 C 3,2 km/h (1 Bft) 100,00 %
26.08.2015 02:30 13,6 C 13,6 C 13,7 C 75 % 0 cb 1018,3 hPa 0,0 l/m 1,6 km/h (1 Bft) W-SW 247 0 min 0,000 mm 0 W/m 9,3 C 13,6 C 4,8 km/h (1 Bft) 100,00 %
26.08.2015 02:40 13,4 C 13,4 C 13,6 C 75 % 0 cb 1018,3 hPa 0,0 l/m 1,6 km/h (1 Bft) W-SW 247 0 min 0,000 mm 0 W/m 9,1 C 13,4 C 3,2 km/h (1 Bft) 100,00 %
26.08.2015 02:50 13,2 C 13,2 C 13,4 C 76 % 0 cb 1018,3 hPa 0,0 l/m 0,0 km/h (0 Bft) W-SW 247 0 min 0,000 mm 0 W/m 9,1 C 13,2 C 3,2 km/h (1 Bft) 98,68 %
26.08.2015 03:00 12,8 C 12,8 C 13,2 C 78 % 0 cb 1018,4 hPa 0,0 l/m 0,0 km/h (0 Bft) W-SW 247 0 min 0,025 mm 0 W/m 9,1 C 12,8 C 1,6 km/h (1 Bft) 100,00 %
26.08.2015 03:10 12,7 C 12,7 C 12,8 C 79 % 0 cb 1018,3 hPa 0,0 l/m 1,6 km/h (1 Bft) W-SW 247 0 min 0,000 mm 0 W/m 9,2 C 12,7 C 3,2 km/h (1 Bft) 100,00 %
26.08.2015 03:20 12,8 C 12,7 C 12,8 C 78 % 0 cb 1018,4 hPa 0,0 l/m 1,6 km/h (1 Bft) W-SW 247 0 min 0,000 mm 0 W/m 9,1 C 12,8 C 3,2 km/h (1 Bft) 100,00 %
26.08.2015 03:30 12,8 C 12,8 C 12,8 C 79 % 0 cb 1018,4 hPa 0,0 l/m 1,6 km/h (1 Bft) W-NW 292 0 min 0,000 mm 0 W/m 9,2 C 12,8 C 6,4 km/h (2 Bft) 100,00 %
26.08.2015 03:40 12,9 C 12,8 C 12,9 C 78 % 0 cb 1018,4 hPa 0,0 l/m 1,6 km/h (1 Bft) NW 315 0 min 0,000 mm 0 W/m 9,2 C 12,9 C 3,2 km/h (1 Bft) 100,00 %
26.08.2015 03:50 13,1 C 12,9 C 13,1 C 77 % 0 cb 1018,3 hPa 0,0 l/m 1,6 km/h (1 Bft) N-NW 337 0 min 0,000 mm 0 W/m 9,2 C 13,1 C 4,8 km/h (1 Bft) 100,00 %
26.08.2015 04:00 12,9 C 12,9 C 13,1 C 78 % 0 cb 1018,3 hPa 0,0 l/m 0,0 km/h (0 Bft) N-NW 337 0 min 0,025 mm 0 W/m 9,2 C 12,9 C 1,6 km/h (1 Bft) 100,00 %
26.08.2015 04:10 12,7 C 12,7 C 12,9 C 79 % 0 cb 1018,3 hPa 0,0 l/m 0,0 km/h (0 Bft) N-NW 337 0 min 0,000 mm 0 W/m 9,2 C 12,7 C 3,2 km/h (1 Bft) 98,25 %
26.08.2015 04:20 12,6 C 12,6 C 12,7 C 79 % 0 cb 1018,2 hPa 0,0 l/m 1,6 km/h (1 Bft) N-NO 22 0 min 0,000 mm 0 W/m 9,1 C 12,6 C 4,8 km/h (1 Bft) 100,00 %
26.08.2015 04:30 12,6 C 12,6 C 12,6 C 79 % 0 cb 1018,2 hPa 0,0 l/m 0,0 km/h (0 Bft) NO 45 0 min 0,000 mm 0 W/m 9,1 C 12,6 C 3,2 km/h (1 Bft) 100,00 %
26.08.2015 04:40 12,5 C 12,5 C 12,6 C 80 % 0 cb 1018,1 hPa 0,0 l/m 0,0 km/h (0 Bft) NO 45 0 min 0,000 mm 0 W/m 9,1 C 12,5 C 1,6 km/h (1 Bft) 100,00 %
26.08.2015 04:50 12,3 C 12,3 C 12,5 C 81 % 0 cb 1018,1 hPa 0,0 l/m 1,6 km/h (1 Bft) NO 45 0 min 0,000 mm 0 W/m 9,1 C 12,3 C 4,8 km/h (1 Bft) 100,00 %
26.08.2015 05:00 12,4 C 12,3 C 12,4 C 81 % 0 cb 1018,2 hPa 0,0 l/m 1,6 km/h (1 Bft) W 270 0 min 0,025 mm 0 W/m 9,2 C 12,4 C 6,4 km/h (2 Bft) 100,00 %
26.08.2015 05:10 12,6 C 12,4 C 12,6 C 82 % 0 cb 1018,1 hPa 0,0 l/m 0,0 km/h (0 Bft) W 270 0 min 0,000 mm 0 W/m 9,6 C 12,6 C 1,6 km/h (1 Bft) 100,00 %
26.08.2015 05:20 12,7 C 12,6 C 12,7 C 81 % 0 cb 1018,0 hPa 0,0 l/m 1,6 km/h (1 Bft) W 270 0 min 0,000 mm 0 W/m 9,5 C 12,7 C 3,2 km/h (1 Bft) 100,00 %
26.08.2015 05:30 12,9 C 12,7 C 12,9 C 82 % 0 cb 1018,0 hPa 0,0 l/m 0,0 km/h (0 Bft) W 270 0 min 0,000 mm 0 W/m 9,9 C 12,9 C 3,2 km/h (1 Bft) 100,00 %
26.08.2015 05:40 13,1 C 12,9 C 13,1 C 82 % 0 cb 1018,0 hPa 0,0 l/m 0,0 km/h (0 Bft) W 270 0 min 0,000 mm 0 W/m 10,1 C 13,1 C 3,2 km/h (1 Bft) 100,00 %
26.08.2015 05:50 13,1 C 13,1 C 13,1 C 84 % 0 cb 1018,0 hPa 0,0 l/m 0,0 km/h (0 Bft) W 270 0 min 0,000 mm 0 W/m 10,5 C 13,1 C 1,6 km/h (1 Bft) 100,00 %
26.08.2015 06:00 13,1 C 13,1 C 13,1 C 83 % 0 cb 1018,0 hPa 0,0 l/m 0,0 km/h (0 Bft) W 270 0 min 0,025 mm 0 W/m 10,3 C 13,1 C 1,6 km/h (1 Bft) 100,00 %
26.08.2015 06:10 13,2 C 13,1 C 13,2 C 82 % 0 cb 1017,8 hPa 0,0 l/m 0,0 km/h (0 Bft) W 270 0 min 0,000 mm 0 W/m 10,2 C 13,2 C 1,6 km/h (1 Bft) 100,00 %
26.08.2015 06:20 13,1 C 13,1 C 13,2 C 81 % 0 cb 1017,8 hPa 0,0 l/m 0,0 km/h (0 Bft) W 270 0 min 0,000 mm 0 W/m 9,9 C 13,1 C 1,6 km/h (1 Bft) 99,56 %
26.08.2015 06:30 13,0 C 13,0 C 13,1 C 81 % 0 cb 1017,9 hPa 0,0 l/m 0,0 km/h (0 Bft) W 270 0 min 0,000 mm 0 W/m 9,8 C 13,0 C 1,6 km/h (1 Bft) 100,00 %
26.08.2015 06:40 12,9 C 12,9 C 13,0 C 81 % 0 cb 1017,9 hPa 0,0 l/m 0,0 km/h (0 Bft) W 270 0 min 0,000 mm 5 W/m 9,7 C 12,9 C 1,6 km/h (1 Bft) 100,00 %
26.08.2015 06:50 12,7 C 12,7 C 12,9 C 82 % 0 cb 1017,9 hPa 0,0 l/m 0,0 km/h (0 Bft) W 270 0 min 0,000 mm 11 W/m 9,7 C 12,7 C 1,6 km/h (1 Bft) 100,00 %
26.08.2015 07:00 12,4 C 12,4 C 12,7 C 83 % 0 cb 1017,8 hPa 0,0 l/m 0,0 km/h (0 Bft) W 270 0 min 0,000 mm 18 W/m 9,6 C 12,4 C 1,6 km/h (1 Bft) 100,00 %
26.08.2015 07:10 12,2 C 12,2 C 12,4 C 83 % 0 cb 1017,8 hPa 0,0 l/m 1,6 km/h (1 Bft) W 270 0 min 0,000 mm 23 W/m 9,4 C 12,2 C 3,2 km/h (1 Bft) 100,00 %
26.08.2015 07:20 12,2 C 12,2 C 12,2 C 84 % 0 cb 1017,7 hPa 0,0 l/m 0,0 km/h (0 Bft) W 270 0 min 0,000 mm 26 W/m 9,6 C 12,2 C 1,6 km/h (1 Bft) 100,00 %
26.08.2015 07:30 12,2 C 12,1 C 12,2 C 84 % 0 cb 1017,7 hPa 0,0 l/m 0,0 km/h (0 Bft) W 270 0 min 0,000 mm 32 W/m 9,6 C 12,2 C 3,2 km/h (1 Bft) 100,00 %
26.08.2015 07:40 12,2 C 12,2 C 12,3 C 84 % 0 cb 1017,8 hPa 0,0 l/m 0,0 km/h (0 Bft) W 270 0 min 0,000 mm 39 W/m 9,6 C 12,2 C 3,2 km/h (1 Bft) 100,00 %
26.08.2015 07:50 12,4 C 12,2 C 12,4 C 84 % 0 cb 1017,8 hPa 0,0 l/m 1,6 km/h (1 Bft) SW 225 0 min 0,000 mm 67 W/m 9,8 C 12,4 C 6,4 km/h (2 Bft) 100,00 %
26.08.2015 08:00 12,7 C 12,4 C 12,7 C 83 % 0 cb 1017,8 hPa 0,0 l/m 1,6 km/h (1 Bft) W-SW 247 0 min 0,025 mm 123 W/m 9,9 C 12,7 C 6,4 km/h (2 Bft) 100,00 %
26.08.2015 08:10 13,3 C 12,7 C 13,3 C 81 % 0 cb 1017,9 hPa 0,0 l/m 1,6 km/h (1 Bft) SW 225 0 min 0,000 mm 149 W/m 10,1 C 13,3 C 4,8 km/h (1 Bft) 100,00 %
26.08.2015 08:20 14,2 C 13,3 C 14,2 C 79 % 0 cb 1017,9 hPa 0,0 l/m 1,6 km/h (1 Bft) SW 225 10 min 0,000 mm 179 W/m 10,6 C 14,2 C 3,2 km/h (1 Bft) 100,00 %
26.08.2015 08:30 14,8 C 14,2 C 14,8 C 75 % 0 cb 1018,0 hPa 0,0 l/m 3,2 km/h (1 Bft) W-NW 292 10 min 0,000 mm 204 W/m 10,4 C 14,8 C 8,0 km/h (2 Bft) 100,00 %
26.08.2015 08:40 15,4 C 14,8 C 15,4 C 74 % 0 cb 1018,0 hPa 0,0 l/m 1,6 km/h (1 Bft) NW 315 10 min 0,000 mm 236 W/m 10,8 C 15,4 C 4,8 km/h (1 Bft) 100,00 %
26.08.2015 08:50 15,9 C 15,4 C 15,9 C 71 % 0 cb 1018,1 hPa 0,0 l/m 1,6 km/h (1 Bft) NW 315 10 min 0,000 mm 271 W/m 10,6 C 15,9 C 8,0 km/h (2 Bft) 100,00 %
26.08.2015 09:00 16,3 C 15,9 C 16,3 C 70 % 0 cb 1018,1 hPa 0,0 l/m 3,2 km/h (1 Bft) W-NW 292 10 min 0,127 mm 295 W/m 10,8 C 16,3 C 6,4 km/h (2 Bft) 100,00 %
26.08.2015 09:10 16,7 C 16,3 C 16,7 C 69 % 0 cb 1018,3 hPa 0,0 l/m 1,6 km/h (1 Bft) W 270 10 min 0,000 mm 318 W/m 11,0 C 16,7 C 8,0 km/h (2 Bft) 100,00 %
26.08.2015 09:20 17,1 C 16,8 C 17,1 C 67 % 0 cb 1018,5 hPa 0,0 l/m 3,2 km/h (1 Bft) N-NW 337 10 min 0,000 mm 348 W/m 10,9 C 17,1 C 8,0 km/h (2 Bft) 100,00 %
26.08.2015 09:30 17,4 C 17,1 C 17,4 C 68 % 0 cb 1018,4 hPa 0,0 l/m 3,2 km/h (1 Bft) NW 315 10 min 0,000 mm 374 W/m 11,4 C 17,4 C 8,0 km/h (2 Bft) 100,00 %
26.08.2015 09:40 17,8 C 17,4 C 17,8 C 66 % 0 cb 1018,5 hPa 0,0 l/m 3,2 km/h (1 Bft) W-NW 292 10 min 0,000 mm 401 W/m 11,4 C 17,8 C 8,0 km/h (2 Bft) 100,00 %
26.08.2015 09:50 18,3 C 17,8 C 18,3 C 66 % 0 cb 1018,5 hPa 0,0 l/m 3,2 km/h (1 Bft) W-NW 292 10 min 0,000 mm 429 W/m 11,8 C 18,3 C 8,0 km/h (2 Bft) 100,00 %
26.08.2015 10:00 18,6 C 18,3 C 18,7 C 65 % 0 cb 1018,5 hPa 0,0 l/m 1,6 km/h (1 Bft) W 270 10 min 0,229 mm 461 W/m 11,9 C 18,6 C 6,4 km/h (2 Bft) 100,00 %
26.08.2015 10:10 19,2 C 18,7 C 19,2 C 64 % 0 cb 1018,4 hPa 0,0 l/m 3,2 km/h (1 Bft) NW 315 10 min 0,000 mm 487 W/m 12,2 C 19,2 C 9,7 km/h (2 Bft) 100,00 %
26.08.2015 10:20 19,4 C 19,2 C 19,4 C 62 % 0 cb 1018,4 hPa 0,0 l/m 3,2 km/h (1 Bft) W-SW 247 10 min 0,000 mm 503 W/m 11,9 C 19,4 C 9,7 km/h (2 Bft) 100,00 %
26.08.2015 10:30 19,4 C 19,4 C 19,5 C 63 % 0 cb 1018,3 hPa 0,0 l/m 3,2 km/h (1 Bft) W-NW 292 10 min 0,000 mm 534 W/m 12,2 C 19,4 C 8,0 km/h (2 Bft) 100,00 %
26.08.2015 10:40 19,8 C 19,4 C 19,8 C 61 % 0 cb 1018,3 hPa 0,0 l/m 3,2 km/h (1 Bft) W-NW 292 10 min 0,000 mm 550 W/m 12,1 C 19,8 C 11,3 km/h (2 Bft) 100,00 %
26.08.2015 10:50 20,2 C 19,8 C 20,2 C 62 % 0 cb 1018,1 hPa 0,0 l/m 3,2 km/h (1 Bft) W-NW 292 10 min 0,000 mm 577 W/m 12,7 C 20,2 C 8,0 km/h (2 Bft) 100,00 %
26.08.2015 11:00 20,7 C 20,2 C 20,7 C 58 % 0 cb 1018,1 hPa 0,0 l/m 3,2 km/h (1 Bft) W-NW 292 10 min 0,330 mm 596 W/m 12,1 C 20,7 C 9,7 km/h (2 Bft) 100,00 %
26.08.2015 11:10 21,1 C 20,7 C 21,1 C 61 % 0 cb 1017,9 hPa 0,0 l/m 4,8 km/h (1 Bft) NW 315 10 min 0,000 mm 621 W/m 13,3 C 21,1 C 12,9 km/h (3 Bft) 98,68 %
26.08.2015 11:20 21,4 C 21,1 C 21,4 C 61 % 0 cb 1017,9 hPa 0,0 l/m 3,2 km/h (1 Bft) W-NW 292 10 min 0,000 mm 633 W/m 13,6 C 21,4 C 14,5 km/h (3 Bft) 100,00 %
26.08.2015 11:30 21,9 C 21,4 C 21,9 C 59 % 0 cb 1017,8 hPa 0,0 l/m 4,8 km/h (1 Bft) W-NW 292 10 min 0,000 mm 603 W/m 13,5 C 21,9 C 14,5 km/h (3 Bft) 100,00 %
26.08.2015 11:40 22,2 C 21,9 C 22,2 C 59 % 0 cb 1017,7 hPa 0,0 l/m 6,4 km/h (2 Bft) W-NW 292 10 min 0,000 mm 664 W/m 13,8 C 22,2 C 17,7 km/h (3 Bft) 100,00 %
26.08.2015 11:50 22,4 C 22,2 C 22,4 C 57 % 0 cb 1017,7 hPa 0,0 l/m 8,0 km/h (2 Bft) NW 315 10 min 0,000 mm 656 W/m 13,5 C 22,4 C 16,1 km/h (3 Bft) 100,00 %
26.08.2015 12:00 22,6 C 22,4 C 22,6 C 57 % 0 cb 1017,5 hPa 0,0 l/m 6,4 km/h (2 Bft) N 360 10 min 0,381 mm 700 W/m 13,6 C 22,6 C 16,1 km/h (3 Bft) 100,00 %
26.08.2015 12:10 22,8 C 22,6 C 22,8 C 58 % 0 cb 1017,4 hPa 0,0 l/m 8,0 km/h (2 Bft) N-NW 337 10 min 0,000 mm 712 W/m 14,1 C 22,8 C 19,3 km/h (3 Bft) 100,00 %
26.08.2015 12:20 23,0 C 22,8 C 23,0 C 55 % 0 cb 1017,2 hPa 0,0 l/m 8,0 km/h (2 Bft) NW 315 10 min 0,000 mm 724 W/m 13,5 C 23,0 C 25,7 km/h (4 Bft) 100,00 %
26.08.2015 12:30 23,2 C 22,9 C 23,2 C 57 % 0 cb 1017,0 hPa 0,0 l/m 6,4 km/h (2 Bft) N-NW 337 10 min 0,000 mm 758 W/m 14,2 C 23,2 C 16,1 km/h (3 Bft) 100,00 %
26.08.2015 12:40 23,4 C 23,2 C 23,4 C 57 % 0 cb 1016,8 hPa 0,0 l/m 8,0 km/h (2 Bft) N-NW 337 10 min 0,000 mm 752 W/m 14,4 C 23,4 C 19,3 km/h (3 Bft) 100,00 %
26.08.2015 12:50 23,7 C 23,4 C 23,7 C 56 % 0 cb 1016,7 hPa 0,0 l/m 8,0 km/h (2 Bft) NW 315 10 min 0,000 mm 747 W/m 14,4 C 23,7 C 22,5 km/h (4 Bft) 100,00 %
26.08.2015 13:00 24,1 C 23,7 C 24,1 C 54 % 0 cb 1016,6 hPa 0,0 l/m 4,8 km/h (1 Bft) N-NW 337 10 min 0,457 mm 731 W/m 14,2 C 24,1 C 14,5 km/h (3 Bft) 100,00 %
26.08.2015 13:10 24,2 C 24,1 C 24,2 C 53 % 0 cb 1016,5 hPa 0,0 l/m 8,0 km/h (2 Bft) N-NW 337 10 min 0,000 mm 766 W/m 14,0 C 24,2 C 24,1 km/h (4 Bft) 100,00 %
26.08.2015 13:20 24,3 C 24,2 C 24,3 C 54 % 0 cb 1016,4 hPa 0,0 l/m 9,7 km/h (2 Bft) NW 315 10 min 0,000 mm 789 W/m 14,4 C 24,3 C 20,9 km/h (4 Bft) 100,00 %
26.08.2015 13:30 24,4 C 24,3 C 24,4 C 52 % 0 cb 1016,3 hPa 0,0 l/m 8,0 km/h (2 Bft) NW 315 10 min 0,000 mm 731 W/m 13,9 C 24,4 C 24,1 km/h (4 Bft) 100,00 %
26.08.2015 13:40 24,7 C 24,4 C 24,7 C 51 % 0 cb 1016,1 hPa 0,0 l/m 6,4 km/h (2 Bft) N-NW 337 10 min 0,000 mm 768 W/m 13,9 C 24,7 C 17,7 km/h (3 Bft) 100,00 %
26.08.2015 13:50 24,8 C 24,7 C 24,8 C 51 % 0 cb 1016,1 hPa 0,0 l/m 8,0 km/h (2 Bft) N-NW 337 10 min 0,000 mm 758 W/m 14,0 C 24,8 C 19,3 km/h (3 Bft) 100,00 %
26.08.2015 14:00 24,8 C 24,7 C 24,8 C 49 % 0 cb 1015,9 hPa 0,0 l/m 8,0 km/h (2 Bft) N-NW 337 10 min 0,508 mm 742 W/m 13,3 C 24,8 C 22,5 km/h (4 Bft) 100,00 %
26.08.2015 14:10 24,9 C 24,8 C 24,9 C 48 % 0 cb 1015,8 hPa 0,0 l/m 8,0 km/h (2 Bft) NW 315 10 min 0,000 mm 701 W/m 13,1 C 24,9 C 19,3 km/h (3 Bft) 100,00 %
26.08.2015 14:20 25,3 C 24,9 C 25,3 C 49 % 0 cb 1015,8 hPa 0,0 l/m 6,4 km/h (2 Bft) N-NW 337 10 min 0,000 mm 731 W/m 13,8 C 25,3 C 19,3 km/h (3 Bft) 100,00 %
26.08.2015 14:30 25,4 C 25,3 C 25,4 C 49 % 0 cb 1015,7 hPa 0,0 l/m 8,0 km/h (2 Bft) N-NW 337 10 min 0,000 mm 733 W/m 13,9 C 25,4 C 19,3 km/h (3 Bft) 100,00 %
26.08.2015 14:40 25,6 C 25,4 C 25,6 C 49 % 0 cb 1015,5 hPa 0,0 l/m 8,0 km/h (2 Bft) N-NW 337 10 min 0,000 mm 724 W/m 14,1 C 25,6 C 27,4 km/h (4 Bft) 100,00 %
26.08.2015 14:50 25,7 C 25,6 C 25,7 C 49 % 0 cb 1015,3 hPa 0,0 l/m 8,0 km/h (2 Bft) NW 315 10 min 0,000 mm 733 W/m 14,2 C 25,7 C 19,3 km/h (3 Bft) 100,00 %
26.08.2015 15:00 25,8 C 25,7 C 25,8 C 47 % 0 cb 1015,4 hPa 0,0 l/m 8,0 km/h (2 Bft) W-NW 292 10 min 0,483 mm 714 W/m 13,6 C 25,8 C 27,4 km/h (4 Bft) 99,56 %
26.08.2015 15:10 26,0 C 25,8 C 26,0 C 46 % 0 cb 1015,3 hPa 0,0 l/m 8,0 km/h (2 Bft) NW 315 10 min 0,000 mm 650 W/m 13,5 C 26,0 C 20,9 km/h (4 Bft) 100,00 %
26.08.2015 15:20 26,0 C 25,9 C 26,0 C 48 % 0 cb 1015,1 hPa 0,0 l/m 8,0 km/h (2 Bft) NW 315 10 min 0,000 mm 701 W/m 14,1 C 26,0 C 20,9 km/h (4 Bft) 100,00 %
26.08.2015 15:30 26,2 C 26,0 C 26,2 C 47 % 0 cb 1015,1 hPa 0,0 l/m 8,0 km/h (2 Bft) NW 315 10 min 0,000 mm 656 W/m 14,0 C 26,2 C 20,9 km/h (4 Bft) 100,00 %
26.08.2015 15:40 26,3 C 26,2 C 26,3 C 50 % 0 cb 1014,9 hPa 0,0 l/m 6,4 km/h (2 Bft) N-NW 337 10 min 0,000 mm 605 W/m 15,0 C 26,3 C 17,7 km/h (3 Bft) 100,00 %
26.08.2015 15:50 26,2 C 26,2 C 26,3 C 47 % 0 cb 1014,8 hPa 0,0 l/m 8,0 km/h (2 Bft) NW 315 10 min 0,000 mm 603 W/m 14,0 C 26,2 C 17,7 km/h (3 Bft) 100,00 %
26.08.2015 16:00 26,1 C 26,1 C 26,2 C 48 % 0 cb 1014,6 hPa 0,0 l/m 9,7 km/h (2 Bft) NW 315 10 min 0,457 mm 626 W/m 14,2 C 26,1 C 20,9 km/h (4 Bft) 100,00 %
26.08.2015 16:10 26,2 C 26,1 C 26,2 C 49 % 0 cb 1014,4 hPa 0,0 l/m 6,4 km/h (2 Bft) NW 315 10 min 0,000 mm 578 W/m 14,6 C 26,2 C 19,3 km/h (3 Bft) 100,00 %
26.08.2015 16:20 26,3 C 26,2 C 26,3 C 48 % 0 cb 1014,5 hPa 0,0 l/m 6,4 km/h (2 Bft) NW 315 10 min 0,000 mm 490 W/m 14,4 C 26,3 C 16,1 km/h (3 Bft) 100,00 %
26.08.2015 16:30 26,1 C 26,1 C 26,3 C 49 % 0 cb 1014,4 hPa 0,0 l/m 6,4 km/h (2 Bft) NW 315 10 min 0,000 mm 520 W/m 14,5 C 26,1 C 17,7 km/h (3 Bft) 100,00 %
26.08.2015 16:40 26,1 C 26,1 C 26,1 C 49 % 0 cb 1014,2 hPa 0,0 l/m 6,4 km/h (2 Bft) NW 315 10 min 0,000 mm 501 W/m 14,5 C 26,1 C 19,3 km/h (3 Bft) 100,00 %
26.08.2015 16:50 26,0 C 26,0 C 26,1 C 49 % 0 cb 1014,1 hPa 0,0 l/m 8,0 km/h (2 Bft) NW 315 10 min 0,000 mm 540 W/m 14,4 C 26,0 C 19,3 km/h (3 Bft) 100,00 %
26.08.2015 17:00 25,9 C 25,9 C 26,0 C 50 % 0 cb 1014,0 hPa 0,0 l/m 9,7 km/h (2 Bft) NW 315 10 min 0,356 mm 490 W/m 14,7 C 25,9 C 16,1 km/h (3 Bft) 100,00 %
26.08.2015 17:10 26,3 C 25,9 C 26,3 C 48 % 0 cb 1013,8 hPa 0,0 l/m 6,4 km/h (2 Bft) NW 315 10 min 0,000 mm 330 W/m 14,4 C 26,3 C 17,7 km/h (3 Bft) 100,00 %
26.08.2015 17:20 26,2 C 26,2 C 26,3 C 47 % 0 cb 1013,7 hPa 0,0 l/m 6,4 km/h (2 Bft) NW 315 0 min 0,000 mm 123 W/m 14,0 C 26,2 C 16,1 km/h (3 Bft) 100,00 %
26.08.2015 17:30 26,4 C 26,2 C 26,5 C 45 % 0 cb 1013,8 hPa 0,0 l/m 4,8 km/h (1 Bft) N-NW 337 0 min 0,000 mm 88 W/m 13,5 C 26,4 C 14,5 km/h (3 Bft) 100,00 %
26.08.2015 17:40 26,4 C 26,4 C 26,4 C 46 % 0 cb 1013,8 hPa 0,0 l/m 6,4 km/h (2 Bft) NW 315 0 min 0,000 mm 88 W/m 13,8 C 26,4 C 17,7 km/h (3 Bft) 99,56 %
26.08.2015 17:50 26,3 C 26,3 C 26,4 C 47 % 0 cb 1013,6 hPa 0,0 l/m 6,4 km/h (2 Bft) NW 315 0 min 0,000 mm 81 W/m 14,1 C 26,3 C 17,7 km/h (3 Bft) 100,00 %
26.08.2015 18:00 26,1 C 26,1 C 26,3 C 46 % 0 cb 1013,5 hPa 0,0 l/m 6,4 km/h (2 Bft) NW 315 0 min 0,127 mm 81 W/m 13,6 C 26,1 C 14,5 km/h (3 Bft) 100,00 %
26.08.2015 18:10 25,4 C 25,4 C 26,1 C 47 % 0 cb 1013,3 hPa 0,0 l/m 4,8 km/h (1 Bft) NW 315 0 min 0,000 mm 81 W/m 13,3 C 25,4 C 16,1 km/h (3 Bft) 100,00 %
26.08.2015 18:20 24,8 C 24,8 C 25,4 C 49 % 0 cb 1013,1 hPa 0,0 l/m 4,8 km/h (1 Bft) NW 315 0 min 0,000 mm 95 W/m 13,3 C 24,8 C 12,9 km/h (3 Bft) 100,00 %
26.08.2015 18:30 24,4 C 24,4 C 24,8 C 53 % 0 cb 1013,1 hPa 0,0 l/m 4,8 km/h (1 Bft) NW 315 0 min 0,000 mm 107 W/m 14,2 C 24,4 C 16,1 km/h (3 Bft) 100,00 %
26.08.2015 18:40 24,3 C 24,2 C 24,4 C 51 % 0 cb 1013,0 hPa 0,0 l/m 4,8 km/h (1 Bft) NW 315 0 min 0,000 mm 111 W/m 13,5 C 24,3 C 11,3 km/h (2 Bft) 100,00 %
26.08.2015 18:50 24,1 C 24,1 C 24,2 C 54 % 0 cb 1012,9 hPa 0,0 l/m 4,8 km/h (1 Bft) N-NW 337 0 min 0,000 mm 114 W/m 14,2 C 24,1 C 9,7 km/h (2 Bft) 100,00 %
26.08.2015 19:00 24,0 C 23,9 C 24,1 C 54 % 0 cb 1012,8 hPa 0,0 l/m 3,2 km/h (1 Bft) NW 315 0 min 0,102 mm 113 W/m 14,1 C 24,0 C 9,7 km/h (2 Bft) 100,00 %
26.08.2015 19:10 24,0 C 23,9 C 24,0 C 54 % 0 cb 1012,7 hPa 0,0 l/m 3,2 km/h (1 Bft) W 270 0 min 0,000 mm 146 W/m 14,1 C 24,0 C 9,7 km/h (2 Bft) 100,00 %
26.08.2015 19:20 24,1 C 24,0 C 24,1 C 53 % 0 cb 1012,6 hPa 0,0 l/m 3,2 km/h (1 Bft) W 270 10 min 0,000 mm 163 W/m 13,9 C 24,1 C 9,7 km/h (2 Bft) 99,56 %
26.08.2015 19:30 24,1 C 24,1 C 24,1 C 54 % 0 cb 1012,7 hPa 0,0 l/m 3,2 km/h (1 Bft) W-SW 247 10 min 0,000 mm 165 W/m 14,2 C 24,1 C 8,0 km/h (2 Bft) 100,00 %
26.08.2015 19:40 23,8 C 23,8 C 24,1 C 54 % 0 cb 1012,9 hPa 0,0 l/m 3,2 km/h (1 Bft) W-NW 292 0 min 0,000 mm 98 W/m 13,9 C 23,8 C 8,0 km/h (2 Bft) 100,00 %
26.08.2015 19:50 23,3 C 23,3 C 23,8 C 55 % 0 cb 1012,8 hPa 0,0 l/m 3,2 km/h (1 Bft) W-NW 292 0 min 0,000 mm 46 W/m 13,7 C 23,3 C 6,4 km/h (2 Bft) 100,00 %
26.08.2015 20:00 22,8 C 22,8 C 23,3 C 56 % 0 cb 1012,8 hPa 0,0 l/m 3,2 km/h (1 Bft) NW 315 0 min 0,076 mm 26 W/m 13,6 C 22,8 C 8,0 km/h (2 Bft) 100,00 %
26.08.2015 20:10 22,3 C 22,3 C 22,8 C 57 % 0 cb 1012,7 hPa 0,0 l/m 3,2 km/h (1 Bft) NW 315 0 min 0,000 mm 18 W/m 13,4 C 22,3 C 8,0 km/h (2 Bft) 100,00 %
26.08.2015 20:20 21,9 C 21,9 C 22,3 C 57 % 0 cb 1012,8 hPa 0,0 l/m 1,6 km/h (1 Bft) NW 315 0 min 0,000 mm 9 W/m 13,0 C 21,9 C 9,7 km/h (2 Bft) 100,00 %
26.08.2015 20:30 21,7 C 21,7 C 21,9 C 58 % 0 cb 1012,8 hPa 0,0 l/m 0,0 km/h (0 Bft) NW 315 0 min 0,000 mm 7 W/m 13,1 C 21,7 C 4,8 km/h (1 Bft) 100,00 %
26.08.2015 20:40 21,3 C 21,3 C 21,7 C 62 % 0 cb 1012,7 hPa 0,0 l/m 0,0 km/h (0 Bft) NW 315 0 min 0,000 mm 0 W/m 13,7 C 21,3 C 1,6 km/h (1 Bft) 100,00 %
26.08.2015 20:50 20,8 C 20,8 C 21,3 C 62 % 0 cb 1012,6 hPa 0,0 l/m 0,0 km/h (0 Bft) W-NW 292 0 min 0,000 mm 0 W/m 13,2 C 20,8 C 3,2 km/h (1 Bft) 100,00 %
26.08.2015 21:00 20,4 C 20,4 C 20,8 C 64 % 0 cb 1012,5 hPa 0,0 l/m 0,0 km/h (0 Bft) W-NW 292 0 min 0,025 mm 0 W/m 13,4 C 20,4 C 3,2 km/h (1 Bft) 100,00 %
26.08.2015 21:10 20,1 C 20,1 C 20,4 C 63 % 0 cb 1012,5 hPa 0,0 l/m 0,0 km/h (0 Bft) W-NW 292 0 min 0,000 mm 0 W/m 12,8 C 20,1 C 1,6 km/h (1 Bft) 100,00 %
26.08.2015 21:20 19,8 C 19,8 C 20,1 C 64 % 0 cb 1012,6 hPa 0,0 l/m 0,0 km/h (0 Bft) W-NW 292 0 min 0,000 mm 0 W/m 12,8 C 19,8 C 3,2 km/h (1 Bft) 100,00 %
26.08.2015 21:30 19,7 C 19,7 C 19,8 C 66 % 0 cb 1012,6 hPa 0,0 l/m 0,0 km/h (0 Bft) NW 315 0 min 0,000 mm 0 W/m 13,2 C 19,7 C 3,2 km/h (1 Bft) 100,00 %
26.08.2015 21:40 19,3 C 19,3 C 19,7 C 67 % 0 cb 1012,6 hPa 0,0 l/m 0,0 km/h (0 Bft) NW 315 0 min 0,000 mm 0 W/m 13,0 C 19,3 C 1,6 km/h (1 Bft) 100,00 %
26.08.2015 21:50 19,0 C 19,0 C 19,3 C 69 % 0 cb 1012,7 hPa 0,0 l/m 0,0 km/h (0 Bft) N 0 0 min 0,000 mm 0 W/m 13,2 C 19,0 C 0,0 km/h (0 Bft) 100,00 %
26.08.2015 22:00 18,7 C 18,7 C 19,0 C 71 % 0 cb 1012,6 hPa 0,0 l/m 0,0 km/h (0 Bft) N 0 0 min 0,025 mm 0 W/m 13,3 C 18,7 C 0,0 km/h (0 Bft) 100,00 %
26.08.2015 22:10 18,4 C 18,4 C 18,7 C 72 % 0 cb 1012,5 hPa 0,0 l/m 0,0 km/h (0 Bft) NW 315 0 min 0,000 mm 0 W/m 13,3 C 18,4 C 1,6 km/h (1 Bft) 100,00 %
26.08.2015 22:20 18,2 C 18,2 C 18,4 C 71 % 0 cb 1012,6 hPa 0,0 l/m 0,0 km/h (0 Bft) NW 315 0 min 0,000 mm 0 W/m 12,9 C 18,2 C 1,6 km/h (1 Bft) 100,00 %
26.08.2015 22:30 17,9 C 17,9 C 18,2 C 72 % 0 cb 1012,6 hPa 0,0 l/m 0,0 km/h (0 Bft) NW 315 0 min 0,000 mm 0 W/m 12,8 C 17,9 C 1,6 km/h (1 Bft) 100,00 %
26.08.2015 22:40 17,8 C 17,8 C 17,9 C 73 % 0 cb 1012,5 hPa 0,0 l/m 0,0 km/h (0 Bft) NW 315 0 min 0,000 mm 0 W/m 12,9 C 17,8 C 1,6 km/h (1 Bft) 100,00 %
26.08.2015 22:50 17,7 C 17,7 C 17,8 C 73 % 0 cb 1012,5 hPa 0,0 l/m 0,0 km/h (0 Bft) NW 315 0 min 0,000 mm 0 W/m 12,8 C 17,7 C 1,6 km/h (1 Bft) 100,00 %
26.08.2015 23:00 17,5 C 17,5 C 17,7 C 73 % 0 cb 1012,6 hPa 0,0 l/m 0,0 km/h (0 Bft) NW 315 0 min 0,025 mm 0 W/m 12,6 C 17,5 C 1,6 km/h (1 Bft) 100,00 %
26.08.2015 23:10 17,4 C 17,4 C 17,5 C 73 % 0 cb 1012,5 hPa 0,0 l/m 0,0 km/h (0 Bft) NW 315 0 min 0,000 mm 0 W/m 12,5 C 17,4 C 1,6 km/h (1 Bft) 100,00 %
26.08.2015 23:20 17,4 C 17,4 C 17,5 C 70 % 0 cb 1012,3 hPa 0,0 l/m 1,6 km/h (1 Bft) NW 315 0 min 0,000 mm 0 W/m 11,9 C 17,4 C 4,8 km/h (1 Bft) 100,00 %
26.08.2015 23:30 17,6 C 17,4 C 17,6 C 71 % 0 cb 1012,4 hPa 0,0 l/m 0,0 km/h (0 Bft) NW 315 0 min 0,000 mm 0 W/m 12,3 C 17,6 C 1,6 km/h (1 Bft) 99,12 %
26.08.2015 23:40 17,7 C 17,6 C 17,7 C 72 % 0 cb 1012,3 hPa 0,0 l/m 0,0 km/h (0 Bft) NW 315 0 min 0,000 mm 0 W/m 12,6 C 17,7 C 1,6 km/h (1 Bft) 100,00 %
26.08.2015 23:50 17,8 C 17,7 C 17,8 C 71 % 0 cb 1012,2 hPa 0,0 l/m 1,6 km/h (1 Bft) NW 315 0 min 0,000 mm 0 W/m 12,5 C 17,8 C 6,4 km/h (2 Bft) 100,00 %
_ Min-Zeit 07:30 07:30 07:20 17:30 00:00 23:50 - 00:30 - - - - - 04:20 07:10 00:40 04:10
Minimum _ 12,1 C 12,1 C 12,2 C 45 % 0 cb 1012,2 hPa - 0,0 km/h (0 Bft) - - - - - 9,1 C 12,2 C 0,0 km/h (0 Bft) 98,25 %
_ Max-Zeit 17:30 17:40 17:30 05:50 00:00 00:10 00:00 13:20 - - 08:20 14:00 13:20 15:40 17:30 14:40 00:00
Maximum _ 26,5 C 26,4 C 26,5 C 84 % 0 cb 1018,8 hPa 0,0 l/m 9,7 km/h
NW (2 Bft)
- - 10 min 0,508 mm 789 W/m 15,0 C 26,4 C 27,4 km/h
W-NW (4 Bft)
100,00 %
Durchschnitt _ 19,0 C 18,9 C 19,1 C 65 % 0 cb 1016,1 hPa #0,0 l/m 3,0 km/h (1 Bft) NW - #9:20 h #3,908 mm 399 W/m 11,9 C 19,0 C 8,9 km/h (2 Bft) 99,94 %
Wetterstation Gdesweiler